Time;durP1;ratioP1;P1;durP2;ratioP2;P2;SDS_P1;SDS_P2;PMS_P1;PMS_P2;Temp;Humidity;BMP_temperature;BMP_pressure;BME280_temperature;BME280_humidity;BME280_pressure;Samples;Min_cycle;Max_cycle;Signal;HPM_P1;HPM_P2
2021/11/03 00:02:09;;;;;;;;;;;256.40;1868.80;;;;;;5093180;28;19904;-65
2021/11/03 00:04:36;;;;;;;;;;;256.40;1894.40;;;;;;5093483;28;19904;-65
2021/11/03 00:07:02;;;;;;;;;;;256.40;1920.00;;;;;;5093193;28;19904;-66
2021/11/03 00:09:28;;;;;;;;;;;256.30;1920.00;;;;;;5093314;28;19910;-65
2021/11/03 00:11:53;;;;;;;;;;;256.40;1945.60;;;;;;5093416;28;19912;-65
2021/11/03 00:14:19;;;;;;;;;;;256.40;1945.60;;;;;;5093599;28;20349;-64
2021/11/03 00:16:45;;;;;;;;;;;256.40;1945.60;;;;;;5093062;28;19957;-65
2021/11/03 00:19:10;;;;;;;;;;;256.50;1971.20;;;;;;5093622;28;20391;-65
2021/11/03 00:21:36;;;;;;;;;;;256.40;1945.60;;;;;;5093275;28;19911;-65
2021/11/03 00:24:02;;;;;;;;;;;256.40;1920.00;;;;;;5093941;28;20003;-65
2021/11/03 00:26:28;;;;;;;;;;;256.50;1945.60;;;;;;5094018;28;20340;-65
2021/11/03 00:28:53;;;;;;;;;;;256.40;1945.60;;;;;;5098229;28;19957;-65
2021/11/03 00:31:19;;;;;;;;;;;256.40;1920.00;;;;;;5098047;28;19916;-65
2021/11/03 00:33:45;;;;;;;;;;;256.40;1920.00;;;;;;5079861;28;19904;-65
2021/11/03 00:36:11;;;;;;;;;;;256.40;1945.60;;;;;;5098162;28;19904;-65
2021/11/03 00:38:36;;;;;;;;;;;256.40;1894.40;;;;;;5097854;28;19907;-65
2021/11/03 00:41:02;;;;;;;;;;;256.30;1894.40;;;;;;5098160;28;19989;-65
2021/11/03 00:43:28;;;;;;;;;;;256.40;1920.00;;;;;;5098126;28;19904;-65
2021/11/03 00:45:53;;;;;;;;;;;256.30;1868.80;;;;;;5097821;28;20266;-65
2021/11/03 00:48:19;;;;;;;;;;;256.20;1868.80;;;;;;5097675;28;19961;-65
2021/11/03 00:50:45;;;;;;;;;;;256.20;1894.40;;;;;;5097806;28;19965;-65
2021/11/03 00:53:11;;;;;;;;;;;256.20;1894.40;;;;;;5097567;28;20354;-65
2021/11/03 00:55:37;;;;;;;;;;;256.10;1868.80;;;;;;5098046;28;19951;-65
2021/11/03 00:58:03;;;;;;;;;;;256.20;1894.40;;;;;;5097568;28;20284;-65
2021/11/03 01:00:28;;;;;;;;;;;256.20;1894.40;;;;;;5097520;28;19912;-65
2021/11/03 01:02:54;;;;;;;;;;;256.10;1868.80;;;;;;5079422;28;19965;-65
2021/11/03 01:05:22;;;;;;;;;;;256.20;1894.40;;;;;;5097666;28;19998;-65
2021/11/03 01:07:48;;;;;;;;;;;256.00;1894.40;;;;;;5097307;28;20398;-65
2021/11/03 01:10:14;;;;;;;;;;;256.00;1868.80;;;;;;5079160;28;19911;-65
2021/11/03 01:12:40;;;;;;;;;;;256.00;1894.40;;;;;;5097198;28;20354;-65
2021/11/03 01:15:07;;;;;;;;;;;256.00;1894.40;;;;;;5097543;28;19904;-65
2021/11/03 01:17:33;;;;;;;;;;;231.30;1868.80;;;;;;5096309;28;19931;-65
2021/11/03 01:19:58;;;;;;;;;;;231.30;1894.40;;;;;;5097033;28;20358;-65
2021/11/03 01:22:24;;;;;;;;;;;231.30;1920.00;;;;;;5097312;28;19904;-65
2021/11/03 01:24:49;;;;;;;;;;;231.20;1868.80;;;;;;5078995;28;20369;-65
2021/11/03 01:27:15;;;;;;;;;;;231.20;1894.40;;;;;;5096976;28;19930;-65
2021/11/03 01:29:41;;;;;;;;;;;231.20;1920.00;;;;;;5078410;28;19910;-65
2021/11/03 01:32:06;;;;;;;;;;;231.20;1868.80;;;;;;5096896;28;19908;-65
2021/11/03 01:34:32;;;;;;;;;;;231.10;1894.40;;;;;;5096767;28;19953;-65
2021/11/03 01:36:58;;;;;;;;;;;231.10;1920.00;;;;;;5096971;28;19910;-65
2021/11/03 01:39:23;;;;;;;;;;;231.10;1868.80;;;;;;5095685;28;19904;-65
2021/11/03 01:41:49;;;;;;;;;;;231.10;1920.00;;;;;;5097020;28;19958;-65
2021/11/03 01:44:15;;;;;;;;;;;231.00;1920.00;;;;;;5096676;28;19911;-65
2021/11/03 01:46:41;;;;;;;;;;;231.00;1868.80;;;;;;5096544;28;19915;-65
2021/11/03 01:49:18;;;;;;;;;;;231.00;1920.00;;;;;;5096484;28;20034;-65
2021/11/03 01:51:44;;;;;;;;;;;231.00;1920.00;;;;;;5078466;28;19968;-65
2021/11/03 01:54:12;;;;;;;;;;;231.00;1894.40;;;;;;5096611;28;20002;-65
2021/11/03 01:56:39;;;;;;;;;;;231.00;1920.00;;;;;;5096448;28;20346;-65
2021/11/03 01:59:12;;;;;;;;;;;231.00;1920.00;;;;;;5096700;28;19904;-65
2021/11/03 02:01:37;;;;;;;;;;;231.00;1894.40;;;;;;5077975;28;20265;-65
2021/11/03 02:04:04;;;;;;;;;;;231.00;1945.60;;;;;;5096434;28;19904;-65
2021/11/03 02:06:31;;;;;;;;;;;231.00;1945.60;;;;;;5096446;28;19969;-65
2021/11/03 02:08:57;;;;;;;;;;;231.00;1920.00;;;;;;5096397;28;19908;-65
2021/11/03 02:11:23;;;;;;;;;;;231.00;1971.20;;;;;;5095975;28;19920;-65
2021/11/03 02:13:49;;;;;;;;;;;231.00;1945.60;;;;;;5078058;28;19950;-65
2021/11/03 02:16:15;;;;;;;;;;;231.00;1920.00;;;;;;5096143;28;19904;-65
2021/11/03 02:18:41;;;;;;;;;;;231.00;1945.60;;;;;;5096185;28;20338;-65
2021/11/03 02:21:08;;;;;;;;;;;231.00;1920.00;;;;;;5096045;28;19904;-65
2021/11/03 02:23:56;;;;;;;;;;;231.00;1920.00;;;;;;5095971;28;20353;-65
2021/11/03 02:26:25;;;;;;;;;;;231.00;1945.60;;;;;;4978009;28;20087;-65
2021/11/03 02:28:51;;;;;;;;;;;231.00;1920.00;;;;;;4994388;28;20027;-65
2021/11/03 02:31:36;;;;;;;;;;;231.00;1945.60;;;;;;4994135;28;20530;-65
2021/11/03 02:34:03;;;;;;;;;;;230.90;1945.60;;;;;;4994196;28;19909;-65
2021/11/03 02:36:28;;;;;;;;;;;231.00;1920.00;;;;;;4994088;28;19906;-64
2021/11/03 02:38:54;;;;;;;;;;;231.00;1945.60;;;;;;4977890;28;19906;-65
2021/11/03 02:41:22;;;;;;;;;;;230.90;1920.00;;;;;;4994088;28;19906;-65
2021/11/03 02:43:53;;;;;;;;;;;231.00;1945.60;;;;;;4993946;28;19906;-65
2021/11/03 02:46:19;;;;;;;;;;;230.90;1971.20;;;;;;4993941;28;20241;-65
2021/11/03 02:48:45;;;;;;;;;;;230.90;1945.60;;;;;;4993935;28;19916;-65
2021/11/03 02:51:13;;;;;;;;;;;231.00;1971.20;;;;;;4993507;28;19984;-65
2021/11/03 02:53:44;;;;;;;;;;;231.00;1945.60;;;;;;4993742;28;19945;-64
2021/11/03 02:56:10;;;;;;;;;;;231.00;1945.60;;;;;;4993762;28;20360;-65
2021/11/03 02:58:37;;;;;;;;;;;231.00;1971.20;;;;;;4993728;28;19992;-64
2021/11/03 03:01:15;;;;;;;;;;;231.00;1945.60;;;;;;4977316;28;20496;-64
2021/11/03 03:03:44;;;;;;;;;;;231.00;1971.20;;;;;;5058532;28;20298;-65
2021/11/03 03:06:12;;;;;;;;;;;231.00;1945.60;;;;;;5076682;28;20195;-64
2021/11/03 03:08:38;;;;;;;;;;;231.00;1971.20;;;;;;5095220;28;19904;-64
2021/11/03 03:11:04;;;;;;;;;;;231.00;1971.20;;;;;;5095067;28;20262;-64
2021/11/03 03:13:31;;;;;;;;;;;231.00;1920.00;;;;;;5095689;28;19938;-64
2021/11/03 03:15:56;;;;;;;;;;;231.00;1971.20;;;;;;5095164;28;19908;-64
2021/11/03 03:18:22;;;;;;;;;;;231.00;1920.00;;;;;;5094922;28;19904;-65
2021/11/03 03:20:47;;;;;;;;;;;231.00;1920.00;;;;;;5094469;28;19910;-64
2021/11/03 03:23:13;;;;;;;;;;;231.00;1945.60;;;;;;5094429;28;19904;-64
2021/11/03 03:25:39;;;;;;;;;;;230.90;1920.00;;;;;;5094882;28;20285;-64
2021/11/03 03:28:05;;;;;;;;;;;230.90;1945.60;;;;;;5095031;28;19904;-64
2021/11/03 03:30:31;;;;;;;;;;;230.90;1945.60;;;;;;5094778;28;19912;-64
2021/11/03 03:32:56;;;;;;;;;;;230.90;1920.00;;;;;;5094738;28;20064;-64
2021/11/03 03:35:22;;;;;;;;;;;230.90;1920.00;;;;;;5093944;28;19990;-64
2021/11/03 03:37:49;;;;;;;;;;;230.90;1920.00;;;;;;5093971;28;19939;-64
2021/11/03 03:40:15;;;;;;;;;;;230.90;1920.00;;;;;;5094549;28;19904;-64
2021/11/03 03:42:41;;;;;;;;;;;230.80;1945.60;;;;;;5094590;28;20006;-64
2021/11/03 03:45:07;;;;;;;;;;;230.80;1920.00;;;;;;5076139;28;19911;-64
2021/11/03 03:47:33;;;;;;;;;;;230.80;1945.60;;;;;;5094216;28;19926;-64
2021/11/03 03:49:58;;;;;;;;;;;230.70;1945.60;;;;;;5093652;28;19951;-64
2021/11/03 03:52:24;;;;;;;;;;;230.70;1894.40;;;;;;5094574;28;20403;-64
2021/11/03 03:54:49;;;;;;;;;;;230.80;1920.00;;;;;;5094453;28;19904;-65
2021/11/03 03:57:15;;;;;;;;;;;230.70;1920.00;;;;;;5094472;28;19949;-64
2021/11/03 03:59:40;;;;;;;;;;;230.70;1920.00;;;;;;5094529;28;20278;-64
2021/11/03 04:02:06;;;;;;;;;;;230.60;1945.60;;;;;;5093649;28;20377;-64
2021/11/03 04:04:32;;;;;;;;;;;230.70;1894.40;;;;;;5094241;28;20324;-64
2021/11/03 04:06:57;;;;;;;;;;;230.70;1920.00;;;;;;5094820;28;19904;-64
2021/11/03 04:09:23;;;;;;;;;;;230.60;1920.00;;;;;;5094314;28;19904;-64
2021/11/03 04:11:48;;;;;;;;;;;230.60;1894.40;;;;;;5076002;28;19912;-63
2021/11/03 04:14:14;;;;;;;;;;;230.60;1945.60;;;;;;5094115;28;20005;-64
2021/11/03 04:16:40;;;;;;;;;;;230.60;1920.00;;;;;;5094178;28;19994;-64
2021/11/03 04:19:06;;;;;;;;;;;230.50;1920.00;;;;;;5094196;28;19904;-64
2021/11/03 04:21:32;;;;;;;;;;;230.60;1971.20;;;;;;5075563;28;20368;-64
2021/11/03 04:23:57;;;;;;;;;;;230.70;1971.20;;;;;;5094290;28;19904;-64
2021/11/03 04:26:31;;;;;;;;;;;230.70;1996.80;;;;;;5094130;28;19977;-64
2021/11/03 04:28:56;;;;;;;;;;;230.70;1996.80;;;;;;5094710;28;19946;-64
2021/11/03 04:31:22;;;;;;;;;;;230.80;1996.80;;;;;;5093918;28;19943;-64
2021/11/03 04:33:50;;;;;;;;;;;230.80;2022.40;;;;;;5094240;28;19957;-64
2021/11/03 04:36:17;;;;;;;;;;;230.80;2022.40;;;;;;5094199;28;19907;-64
2021/11/03 04:38:43;;;;;;;;;;;230.90;2022.40;;;;;;5094131;28;20288;-64
2021/11/03 04:41:08;;;;;;;;;;;230.90;2022.40;;;;;;5094025;28;19994;-64
2021/11/03 04:43:34;;;;;;;;;;;231.00;2022.40;;;;;;5093970;28;20274;-64
2021/11/03 04:46:00;;;;;;;;;;;231.00;2022.40;;;;;;5076065;28;20266;-64
2021/11/03 04:48:26;;;;;;;;;;;231.00;2022.40;;;;;;5075159;28;19923;-65
2021/11/03 04:50:51;;;;;;;;;;;231.00;2022.40;;;;;;5093607;28;19912;-64
2021/11/03 04:53:17;;;;;;;;;;;231.00;2048.00;;;;;;5075439;28;19904;-64
2021/11/03 04:55:43;;;;;;;;;;;231.10;2048.00;;;;;;5075281;28;19954;-64
2021/11/03 04:58:09;;;;;;;;;;;231.10;2048.00;;;;;;5093724;28;19908;-65
2021/11/03 05:00:35;;;;;;;;;;;231.20;2048.00;;;;;;5093769;28;19911;-64
2021/11/03 05:03:01;;;;;;;;;;;231.20;2048.00;;;;;;5093509;28;19911;-64
2021/11/03 05:05:27;;;;;;;;;;;231.20;2048.00;;;;;;5093706;28;19991;-64
2021/11/03 05:07:54;;;;;;;;;;;231.30;2048.00;;;;;;5075099;28;20313;-64
2021/11/03 05:10:20;;;;;;;;;;;231.30;2048.00;;;;;;5093690;28;19919;-64
2021/11/03 05:12:46;;;;;;;;;;;231.30;2048.00;;;;;;5076039;28;19904;-65
2021/11/03 05:15:11;;;;;;;;;;;256.00;2048.00;;;;;;5098030;28;20333;-64
2021/11/03 05:17:37;;;;;;;;;;;256.00;2048.00;;;;;;5097309;28;19903;-64
2021/11/03 05:20:03;;;;;;;;;;;256.10;2048.00;;;;;;5097278;28;19915;-63
2021/11/03 05:22:29;;;;;;;;;;;256.10;2048.00;;;;;;5097186;28;19990;-64
2021/11/03 05:24:55;;;;;;;;;;;256.20;2048.00;;;;;;5097096;28;19935;-64
2021/11/03 05:27:20;;;;;;;;;;;256.20;2073.60;;;;;;5097274;28;19911;-64
2021/11/03 05:29:46;;;;;;;;;;;256.20;2048.00;;;;;;5097415;28;19904;-64
2021/11/03 05:32:12;;;;;;;;;;;256.20;2048.00;;;;;;5096951;28;19904;-64
2021/11/03 05:34:37;;;;;;;;;;;256.30;2048.00;;;;;;5096899;28;19958;-64
2021/11/03 05:37:04;;;;;;;;;;;256.30;2048.00;;;;;;5097081;28;20330;-64
2021/11/03 05:39:30;;;;;;;;;;;256.40;2048.00;;;;;;5078423;28;19951;-64
2021/11/03 05:41:55;;;;;;;;;;;256.40;2048.00;;;;;;5096720;28;19911;-64
2021/11/03 05:44:21;;;;;;;;;;;256.40;2048.00;;;;;;5097136;28;19904;-63
2021/11/03 05:46:49;;;;;;;;;;;256.50;2048.00;;;;;;5096677;28;19969;-64
2021/11/03 05:49:15;;;;;;;;;;;256.50;2048.00;;;;;;5096602;28;19935;-64
2021/11/03 05:51:42;;;;;;;;;;;256.50;2048.00;;;;;;5096381;28;19912;-64
2021/11/03 05:54:08;;;;;;;;;;;256.50;2048.00;;;;;;5078068;28;19911;-64
2021/11/03 05:56:35;;;;;;;;;;;256.60;2048.00;;;;;;5096508;28;19905;-64
2021/11/03 05:59:01;;;;;;;;;;;256.60;2048.00;;;;;;5096634;28;19904;-64
2021/11/03 06:01:27;;;;;;;;;;;256.60;2022.40;;;;;;5096276;28;19908;-63
2021/11/03 06:03:53;;;;;;;;;;;256.70;2022.40;;;;;;5096370;28;20003;-64
2021/11/03 06:06:19;;;;;;;;;;;256.70;2022.40;;;;;;5096438;28;19911;-64
2021/11/03 06:08:45;;;;;;;;;;;256.70;2022.40;;;;;;5096636;28;19986;-64
2021/11/03 06:11:14;;;;;;;;;;;256.70;2022.40;;;;;;5096084;28;19912;-64
2021/11/03 06:13:40;;;;;;;;;;;256.70;2022.40;;;;;;5077639;28;19904;-64
2021/11/03 06:16:06;;;;;;;;;;;256.80;2022.40;;;;;;5096197;28;19911;-64
2021/11/03 06:18:31;;;;;;;;;;;256.80;2022.40;;;;;;5096152;28;19904;-64
2021/11/03 06:20:57;;;;;;;;;;;256.80;2022.40;;;;;;5096137;28;19904;-63
2021/11/03 06:23:23;;;;;;;;;;;256.90;2048.00;;;;;;5095277;28;19916;-64
2021/11/03 06:25:48;;;;;;;;;;;256.90;2048.00;;;;;;5095275;28;19998;-64
2021/11/03 06:28:14;;;;;;;;;;;281.60;2073.60;;;;;;5096714;28;19904;-64
2021/11/03 06:30:39;;;;;;;;;;;281.60;2073.60;;;;;;5077218;28;20007;-63
2021/11/03 06:33:06;;;;;;;;;;;281.60;2073.60;;;;;;5096187;28;19908;-64
2021/11/03 06:35:33;;;;;;;;;;;281.60;2073.60;;;;;;5095537;28;20350;-64
2021/11/03 06:37:58;;;;;;;;;;;281.60;2073.60;;;;;;5095598;28;19904;-64
2021/11/03 06:40:25;;;;;;;;;;;281.70;2073.60;;;;;;5077076;28;19904;-63
2021/11/03 06:42:51;;;;;;;;;;;281.80;2073.60;;;;;;5095682;28;19911;-64
2021/11/03 06:45:18;;;;;;;;;;;281.80;2073.60;;;;;;5095693;28;20000;-63
2021/11/03 06:47:44;;;;;;;;;;;281.80;2073.60;;;;;;5095417;28;19923;-64
2021/11/03 06:50:11;;;;;;;;;;;281.80;2073.60;;;;;;5095244;28;19912;-64
2021/11/03 06:52:38;;;;;;;;;;;281.90;2073.60;;;;;;5095402;28;19904;-64
2021/11/03 06:55:04;;;;;;;;;;;282.00;2073.60;;;;;;5095343;28;19908;-64
2021/11/03 06:57:29;;;;;;;;;;;282.00;2073.60;;;;;;5095450;28;19911;-64
2021/11/03 06:59:56;;;;;;;;;;;282.00;2073.60;;;;;;5095291;28;19911;-64
2021/11/03 07:02:21;;;;;;;;;;;282.10;2073.60;;;;;;5097207;28;19950;-64
2021/11/03 07:04:47;;;;;;;;;;;282.10;2073.60;;;;;;5093539;28;19951;-63
2021/11/03 07:07:13;;;;;;;;;;;282.10;2073.60;;;;;;5093645;28;19925;-64
2021/11/03 07:09:38;;;;;;;;;;;282.10;2073.60;;;;;;5093826;28;19949;-63
2021/11/03 07:12:04;;;;;;;;;;;282.10;2073.60;;;;;;5093861;28;19937;-63
2021/11/03 07:14:29;;;;;;;;;;;282.20;2073.60;;;;;;5095055;28;19994;-64
2021/11/03 07:16:55;;;;;;;;;;;282.20;2073.60;;;;;;5094710;28;19903;-63
2021/11/03 07:19:21;;;;;;;;;;;282.30;2099.20;;;;;;5094779;28;19949;-62
2021/11/03 07:21:46;;;;;;;;;;;282.30;2073.60;;;;;;5095082;28;20265;-70
2021/11/03 07:24:13;;;;;;;;;;;282.30;2073.60;;;;;;5095124;28;19927;-64
2021/11/03 07:26:40;;;;;;;;;;;282.40;2073.60;;;;;;5094807;28;19908;-64
2021/11/03 07:29:05;;;;;;;;;;;282.50;2099.20;;;;;;5094532;28;20309;-64
2021/11/03 07:31:31;;;;;;;;;;;282.50;2099.20;;;;;;5093124;28;20057;-63
2021/11/03 07:33:56;;;;;;;;;;;282.50;2099.20;;;;;;5092214;28;19908;-64
2021/11/03 07:36:22;;;;;;;;;;;307.20;2124.80;;;;;;5093198;28;20077;-64
2021/11/03 07:38:49;;;;;;;;;;;307.30;2124.80;;;;;;5094521;28;20361;-63
2021/11/03 07:41:15;;;;;;;;;;;307.30;2124.80;;;;;;5094746;28;20399;-64
2021/11/03 07:43:42;;;;;;;;;;;307.40;2124.80;;;;;;5094606;28;19904;-64
2021/11/03 07:46:08;;;;;;;;;;;307.40;2150.40;;;;;;5094515;28;19911;-63
2021/11/03 07:48:34;;;;;;;;;;;307.50;2150.40;;;;;;5093710;28;19916;-64
2021/11/03 07:51:02;;;;;;;;;;;307.60;2124.80;;;;;;5094102;28;19947;-64
2021/11/03 07:53:28;;;;;;;;;;;307.60;2124.80;;;;;;5094354;28;19911;-65
2021/11/03 07:55:58;;;;;;;;;;;307.70;2150.40;;;;;;5094493;28;19904;-64
2021/11/03 07:58:25;;;;;;;;;;;307.80;2150.40;;;;;;5094500;28;19940;-64
2021/11/03 08:00:51;;;;;;;;;;;307.80;2150.40;;;;;;5092485;28;20357;-64
2021/11/03 08:03:17;;;;;;;;;;;307.90;2150.40;;;;;;5094590;28;19995;-64
2021/11/03 08:05:43;;;;;;;;;;;308.00;2150.40;;;;;;5094198;28;19974;-63
2021/11/03 08:08:12;;;;;;;;;;;308.00;2124.80;;;;;;5094768;28;19950;-64
2021/11/03 08:10:38;;;;;;;;;;;308.10;2176.00;;;;;;5095513;28;20375;-64
2021/11/03 08:13:04;;;;;;;;;;;332.80;2176.00;;;;;;5094167;28;19916;-65
2021/11/03 08:15:30;;;;;;;;;;;332.80;2176.00;;;;;;5094422;28;20002;-64
2021/11/03 08:17:57;;;;;;;;;;;333.00;2176.00;;;;;;5094327;28;20361;-64
2021/11/03 08:20:24;;;;;;;;;;;333.00;2201.60;;;;;;5092674;28;20273;-64
2021/11/03 08:22:51;;;;;;;;;;;333.10;2176.00;;;;;;5094047;28;19908;-64
2021/11/03 08:25:17;;;;;;;;;;;333.20;2176.00;;;;;;5094246;28;19910;-64
2021/11/03 08:27:42;;;;;;;;;;;333.30;2176.00;;;;;;5094342;28;19987;-64
2021/11/03 08:30:09;;;;;;;;;;;333.30;2176.00;;;;;;5094055;28;19904;-65
2021/11/03 08:32:37;;;;;;;;;;;333.40;2176.00;;;;;;5094009;28;20357;-63
2021/11/03 08:35:06;;;;;;;;;;;333.50;2150.40;;;;;;5093922;28;19954;-64
2021/11/03 08:37:33;;;;;;;;;;;333.50;2150.40;;;;;;5093559;28;19908;-65
2021/11/03 08:40:00;;;;;;;;;;;333.50;2150.40;;;;;;5092264;28;19911;-64
2021/11/03 08:42:25;;;;;;;;;;;333.60;2124.80;;;;;;5093924;28;19908;-64
2021/11/03 08:44:52;;;;;;;;;;;333.50;2124.80;;;;;;5093658;28;19904;-64
2021/11/03 08:47:17;;;;;;;;;;;333.60;2124.80;;;;;;5094006;28;20263;-64
2021/11/03 08:49:43;;;;;;;;;;;333.60;2124.80;;;;;;5097751;28;19930;-64
2021/11/03 08:52:09;;;;;;;;;;;333.60;2124.80;;;;;;5098294;28;19912;-64
2021/11/03 08:54:38;;;;;;;;;;;333.60;2124.80;;;;;;5097724;28;20045;-64
2021/11/03 08:57:03;;;;;;;;;;;333.70;2124.80;;;;;;5097658;28;20430;-64
2021/11/03 08:59:29;;;;;;;;;;;333.70;2124.80;;;;;;5097728;28;19949;-64
2021/11/03 09:01:55;;;;;;;;;;;333.70;2099.20;;;;;;5097729;28;19904;-64
2021/11/03 09:04:21;;;;;;;;;;;333.70;2099.20;;;;;;5098017;28;20250;-65
2021/11/03 09:06:46;;;;;;;;;;;333.70;2099.20;;;;;;5097536;28;19904;-64
2021/11/03 09:09:12;;;;;;;;;;;333.70;2099.20;;;;;;5097291;28;20007;-64
2021/11/03 09:11:38;;;;;;;;;;;333.70;2099.20;;;;;;5097252;28;20006;-64
2021/11/03 09:14:04;;;;;;;;;;;333.70;2073.60;;;;;;5097125;28;19904;-64
2021/11/03 09:16:29;;;;;;;;;;;333.70;2073.60;;;;;;5097743;28;19950;-63
2021/11/03 09:18:55;;;;;;;;;;;358.40;2099.20;;;;;;5097404;28;19908;-64
2021/11/03 09:21:22;;;;;;;;;;;358.40;2073.60;;;;;;5095708;28;19948;-63
2021/11/03 09:23:48;;;;;;;;;;;358.40;2073.60;;;;;;5095383;28;19904;-64
2021/11/03 09:26:14;;;;;;;;;;;358.40;2073.60;;;;;;5096967;28;19915;-63
2021/11/03 09:28:40;;;;;;;;;;;358.40;2073.60;;;;;;5095096;28;19904;-64
2021/11/03 09:31:08;;;;;;;;;;;358.40;2073.60;;;;;;5097716;28;20364;-64
2021/11/03 09:33:35;;;;;;;;;;;358.40;2073.60;;;;;;5096993;28;19908;-63
2021/11/03 09:36:01;;;;;;;;;;;358.40;2073.60;;;;;;5097127;28;19980;-64
2021/11/03 09:38:28;;;;;;;;;;;333.70;2073.60;;;;;;5095445;28;20342;-64
2021/11/03 09:40:53;;;;;;;;;;;333.70;2073.60;;;;;;5097119;28;19904;-64
2021/11/03 09:43:39;;;;;;;;;;;358.40;2073.60;;;;;;5096963;28;19976;-64
2021/11/03 09:46:16;;;;;;;;;;;358.40;2073.60;;;;;;5095213;28;20008;-64
2021/11/03 09:48:41;;;;;;;;;;;358.40;2073.60;;;;;;5096637;28;20354;-64
2021/11/03 09:51:14;;;;;;;;;;;358.40;2099.20;;;;;;5096565;28;19919;-64
2021/11/03 09:53:43;;;;;;;;;;;358.40;2099.20;;;;;;5096662;28;20372;-64
2021/11/03 09:56:13;;;;;;;;;;;358.40;2099.20;;;;;;5096290;28;19904;-64
2021/11/03 09:58:47;;;;;;;;;;;358.40;2099.20;;;;;;5096415;28;19910;-64
2021/11/03 10:01:13;;;;;;;;;;;358.40;2099.20;;;;;;5095678;28;20017;-64
2021/11/03 10:04:05;;;;;;;;;;;358.40;2099.20;;;;;;5096896;28;19916;-63
2021/11/03 10:06:33;;;;;;;;;;;358.50;2099.20;;;;;;5014281;28;19971;-64
2021/11/03 10:08:59;;;;;;;;;;;358.40;2099.20;;;;;;5014526;28;19905;-64
2021/11/03 10:11:34;;;;;;;;;;;358.50;2099.20;;;;;;4997144;28;19913;-64
2021/11/03 10:14:00;;;;;;;;;;;358.60;2099.20;;;;;;5014175;28;19960;-64
2021/11/03 10:16:28;;;;;;;;;;;358.60;2099.20;;;;;;5013983;28;19920;-64
2021/11/03 10:19:09;;;;;;;;;;;358.60;2099.20;;;;;;5014089;28;20009;-64
2021/11/03 10:21:37;;;;;;;;;;;358.70;2099.20;;;;;;5014066;28;20000;-64
2021/11/03 10:24:06;;;;;;;;;;;358.80;2099.20;;;;;;5014108;28;20427;-64
2021/11/03 10:26:44;;;;;;;;;;;358.80;2099.20;;;;;;4997354;28;19956;-64
2021/11/03 10:29:12;;;;;;;;;;;358.80;2099.20;;;;;;5014035;28;20020;-64
2021/11/03 10:31:42;;;;;;;;;;;358.90;2099.20;;;;;;5013696;28;19914;-64
2021/11/03 10:34:26;;;;;;;;;;;358.90;2073.60;;;;;;4996186;28;20065;-64
2021/11/03 10:37:10;;;;;;;;;;;359.00;2073.60;;;;;;4997344;28;19979;-64
2021/11/03 10:39:44;;;;;;;;;;;359.10;2073.60;;;;;;5013904;28;19912;-64
2021/11/03 10:42:19;;;;;;;;;;;359.10;2073.60;;;;;;5016951;28;19913;-64
2021/11/03 10:44:45;;;;;;;;;;;359.20;2048.00;;;;;;5095623;28;19904;-64
2021/11/03 10:47:12;;;;;;;;;;;359.30;2073.60;;;;;;5095687;28;19977;-64
2021/11/03 10:49:41;;;;;;;;;;;359.30;2073.60;;;;;;5093834;28;19904;-64
2021/11/03 10:52:19;;;;;;;;;;;384.00;2048.00;;;;;;5095848;28;19965;-64
2021/11/03 10:54:50;;;;;;;;;;;384.10;2048.00;;;;;;5095398;28;19908;-64
2021/11/03 10:57:20;;;;;;;;;;;384.10;2048.00;;;;;;5095463;28;20269;-64
2021/11/03 10:59:49;;;;;;;;;;;384.20;2073.60;;;;;;5095537;28;19904;-64
2021/11/03 11:02:20;;;;;;;;;;;384.20;2048.00;;;;;;5093705;28;19956;-64
2021/11/03 11:04:47;;;;;;;;;;;384.30;2048.00;;;;;;5095455;28;19904;-64
2021/11/03 11:07:31;;;;;;;;;;;384.40;2048.00;;;;;;5095517;28;20261;-65
2021/11/03 11:10:03;;;;;;;;;;;384.40;2048.00;;;;;;5095240;28;20346;-64
2021/11/03 11:12:40;;;;;;;;;;;384.50;2048.00;;;;;;5094976;28;19916;-64
2021/11/03 11:15:17;;;;;;;;;;;384.50;2048.00;;;;;;5094909;28;19911;-64
2021/11/03 11:17:49;;;;;;;;;;;384.60;2022.40;;;;;;5094804;28;19937;-65
2021/11/03 11:20:30;;;;;;;;;;;384.70;2048.00;;;;;;5094838;28;19995;-64
2021/11/03 11:22:55;;;;;;;;;;;384.70;2048.00;;;;;;5093522;28;19904;-64
2021/11/03 11:25:24;;;;;;;;;;;384.80;2022.40;;;;;;5093804;28;19964;-64
2021/11/03 11:27:49;;;;;;;;;;;384.90;2048.00;;;;;;5093598;28;20346;-64
2021/11/03 11:30:16;;;;;;;;;;;409.60;2073.60;;;;;;5076893;28;19904;-64
2021/11/03 11:33:00;;;;;;;;;;;409.60;2048.00;;;;;;5095255;28;19911;-64
2021/11/03 11:35:32;;;;;;;;;;;409.70;2048.00;;;;;;5083421;28;19931;-64
2021/11/03 11:38:04;;;;;;;;;;;409.70;2048.00;;;;;;5074209;28;20366;-64
2021/11/03 11:40:37;;;;;;;;;;;409.80;2048.00;;;;;;5073035;28;20283;-64
2021/11/03 11:43:16;;;;;;;;;;;409.90;2022.40;;;;;;5074083;28;20350;-64
2021/11/03 11:45:42;;;;;;;;;;;410.00;2022.40;;;;;;5074076;28;20042;-64
2021/11/03 11:48:23;;;;;;;;;;;410.00;2022.40;;;;;;5073682;28;19948;-64
2021/11/03 11:51:01;;;;;;;;;;;410.00;2022.40;;;;;;5074208;28;19916;-64
2021/11/03 11:53:29;;;;;;;;;;;410.20;2022.40;;;;;;5074218;28;19914;-64
2021/11/03 11:56:10;;;;;;;;;;;410.20;2022.40;;;;;;5074249;28;20347;-64
2021/11/03 11:58:38;;;;;;;;;;;410.30;2022.40;;;;;;5074391;28;20480;-64
2021/11/03 12:01:13;;;;;;;;;;;410.30;2022.40;;;;;;5072512;28;20366;-64
2021/11/03 12:03:46;;;;;;;;;;;410.40;2022.40;;;;;;5072656;28;19909;-64
2021/11/03 12:06:11;;;;;;;;;;;410.50;1996.80;;;;;;5074499;28;19954;-64
2021/11/03 12:08:49;;;;;;;;;;;435.20;1996.80;;;;;;5074344;28;20359;-64
2021/11/03 12:11:18;;;;;;;;;;;435.20;1945.60;;;;;;5078160;28;19912;-64
2021/11/03 12:13:43;;;;;;;;;;;435.20;1920.00;;;;;;5091430;28;20015;-64
2021/11/03 12:16:27;;;;;;;;;;;435.30;1920.00;;;;;;5095954;28;20366;-64
2021/11/03 12:18:55;;;;;;;;;;;435.30;1894.40;;;;;;5093046;28;20505;-65
2021/11/03 12:21:23;;;;;;;;;;;435.40;1894.40;;;;;;5094932;28;19912;-64
2021/11/03 12:23:49;;;;;;;;;;;435.40;1894.40;;;;;;5095939;28;19903;-64
2021/11/03 12:26:28;;;;;;;;;;;435.40;1894.40;;;;;;5097702;28;19904;-64
2021/11/03 12:29:17;;;;;;;;;;;435.50;1894.40;;;;;;5097175;28;19915;-64
2021/11/03 12:31:42;;;;;;;;;;;435.50;1894.40;;;;;;5088465;28;19912;-64
2021/11/03 12:34:08;;;;;;;;;;;435.60;1894.40;;;;;;5106961;28;19904;-64
2021/11/03 12:36:48;;;;;;;;;;;435.60;1868.80;;;;;;5111031;28;19904;-64
2021/11/03 12:39:29;;;;;;;;;;;435.60;1868.80;;;;;;5098774;28;20349;-65
2021/11/03 12:41:59;;;;;;;;;;;435.60;1843.20;;;;;;5098760;28;19911;-65
2021/11/03 12:44:30;;;;;;;;;;;435.60;1843.20;;;;;;5096842;28;19910;-64
2021/11/03 12:46:56;;;;;;;;;;;435.70;1817.60;;;;;;5094226;28;19916;-64
2021/11/03 12:49:24;;;;;;;;;;;435.70;1817.60;;;;;;5097100;28;19927;-64
2021/11/03 12:51:53;;;;;;;;;;;435.70;1817.60;;;;;;5098654;28;19921;-65
2021/11/03 12:54:22;;;;;;;;;;;435.70;1817.60;;;;;;5095842;28;19908;-64
2021/11/03 12:56:58;;;;;;;;;;;435.70;1817.60;;;;;;5079769;28;20258;-64
2021/11/03 12:59:26;;;;;;;;;;;435.80;1817.60;;;;;;5095552;28;19904;-64
2021/11/03 13:01:54;;;;;;;;;;;435.80;1792.00;;;;;;5098198;28;19916;-64
2021/11/03 13:04:34;;;;;;;;;;;435.80;1817.60;;;;;;5092887;28;19951;-64
2021/11/03 13:07:22;;;;;;;;;;;435.80;1817.60;;;;;;5095108;28;19908;-64
2021/11/03 13:09:59;;;;;;;;;;;435.80;1792.00;;;;;;5095528;28;19904;-65
2021/11/03 13:12:31;;;;;;;;;;;435.80;1817.60;;;;;;5095472;28;20261;-63
2021/11/03 13:14:59;;;;;;;;;;;435.80;1792.00;;;;;;5095483;28;20323;-64
2021/11/03 13:17:30;;;;;;;;;;;435.90;1792.00;;;;;;5096316;28;20011;-65
2021/11/03 13:19:56;;;;;;;;;;;435.90;1792.00;;;;;;5093727;28;19911;-65
2021/11/03 13:22:27;;;;;;;;;;;435.90;1792.00;;;;;;5096263;28;19991;-64
2021/11/03 13:24:53;;;;;;;;;;;435.90;1817.60;;;;;;5097997;28;19947;-64
2021/11/03 13:27:21;;;;;;;;;;;435.90;1817.60;;;;;;5097839;28;19962;-64
2021/11/03 13:29:52;;;;;;;;;;;435.90;1817.60;;;;;;5093717;28;19905;-64
2021/11/03 13:32:18;;;;;;;;;;;436.00;1817.60;;;;;;5095318;28;19965;-65
2021/11/03 13:35:02;;;;;;;;;;;436.00;1817.60;;;;;;5097365;28;21250;-65
2021/11/03 13:37:31;;;;;;;;;;;436.00;1817.60;;;;;;5095770;28;20274;-64
2021/11/03 13:40:02;;;;;;;;;;;436.00;1817.60;;;;;;5098562;28;19938;-65
2021/11/03 13:42:42;;;;;;;;;;;436.00;1817.60;;;;;;5117053;28;19910;-65
2021/11/03 13:45:23;;;;;;;;;;;436.00;1817.60;;;;;;5117530;28;19904;-68
2021/11/03 13:47:57;;;;;;;;;;;436.00;1817.60;;;;;;5116883;28;20006;-73